Accueil
METAR-TAF:

METAR-TAF

Aéroports :

Aéroport de Toussus-le-Noble

Toussus-le-Noble, France

latitude: 48-46N, longitude: 002-06E, altitude: 164 m

Observation

Le bulletin a été fait il y a 1 heure et 5 minutes, à 03:30 UTC
Vent 5 kt de nord
Température 11°C
Humidité 87%
Pression 1027 hPa
Visibilité 10 km ou plus
pas de nuages en-dessous de 1500 mètres et pas de cumulonimbus.

METAR: LFPN 060330Z AUTO 35005KT CAVOK 11/09 Q1027

Heure: 06:35 (04:35 UTC)

Prévision

Le bulletin a été fait il y a 11 heures et 35 minutes, à 17:00 UTC
Prévision valable du 05 à 18 UTC au 06 à 03 UTC
Vent 8 kt de nord
Visibilité 10 km ou plus
pas de nuages en-dessous de 1500 mètres et pas de cumulonimbus.

TAF: LFPN 051700Z 0518/0603 35008KT CAVOK

Observations et prévisions météorologiques de plus de 4000 aéroports (messages METAR et TAF).

Les stations disponibles sont représentées par des disques jaunes et rouges sur la carte.

Passer la souris dessus pour voir le nom de la station.

Cliquer dessus pour voir les observations et prévisions météorologiques.

Pour changer de carte: cliquez sur les boutons verts avec une croix noire pour zoomer, sur le bouton vert avec un tiret pour effectuer un zoom arrière, ou sur les flèches vertes pour les cartes adjacentes.


METAR-TAF: